Miraero Ace — 3FIH4 — position and weather

sailwx.info

Track history (hours):
 
Tides and Currents Weather Stations Pressure Air Temp Water Temp Dewpoint Dewpoint Depression Visibility Wind Speed Wind Dir Waves Ship Positions

Miraero Ace

Last reported at 2014-Dec-22 12:33 UTC. Time now 2014-Dec-22 13:29 UTC.
Position N 53°35' E 008°09'.

Length 229 m; draft 14.3 m.

Type: Ship. MMSI: 373216000.

Date/timePositionNaut miles runAvg speedWind from/ knotsBaromVisibWave heightAir tempDewpointWater temp
2014-Dec-22 12:33N 53°35' E 008°09'0 0.0
2014-Dec-22 11:33N 53°35' E 008°09'0 0.0
2014-Dec-22 10:33N 53°35' E 008°09'0 0.0
2014-Dec-22 09:33N 53°35' E 008°09'0 0.0
2014-Dec-22 08:33N 53°35' E 008°09'0 0.0
2014-Dec-22 07:33N 53°35' E 008°09'0 0.0
2014-Dec-22 06:33N 53°35' E 008°09'0 0.0
2014-Dec-22 05:33N 53°35' E 008°09'0 0.0
2014-Dec-22 04:33N 53°35' E 008°09'3 3.2
2014-Dec-22 03:33N 53°38' E 008°08'8 7.9
2014-Dec-22 02:33N 53°45' E 008°03'7 7.3
2014-Dec-22 01:33N 53°50' E 007°53'8 7.7
2014-Dec-22 00:33N 53°54' E 007°42'9 8.6
2014-Dec-21 23:33N 54°01' E 007°34'7 7.5
2014-Dec-21 22:34N 54°08' E 007°29'7 7.3
2014-Dec-21 21:33N 54°14' E 007°23'1 1.3
2014-Dec-21 20:34N 54°15' E 007°21'6 6.0
2014-Dec-21 19:33N 54°21' E 007°17'9 8.8
2014-Dec-21 18:33N 54°29' E 007°12'1211.6
2014-Dec-21 17:33N 54°40' E 007°04'1111.2
2014-Dec-21 16:33N 54°51' E 007°00'1010.5
2014-Dec-21 15:33N 55°01' E 006°59'1110.9
2014-Dec-21 14:33N 55°12' E 006°57'1110.8
2014-Dec-21 13:33N 55°23' E 006°59'1211.6
2014-Dec-21 12:33N 55°34' E 006°60'1211.8
2014-Dec-21 11:33N 55°46' E 007°02'8610.3
2014-Dec-21 03:12N 57°07' E 007°59'8 9.3
2014-Dec-21 02:23N 57°10' E 008°11'18 9.4
2014-Dec-21 00:27N 57°23' E 008°35'65 9.5
2014-Dec-20 17:33N 57°48' E 010°28'10 9.9
2014-Dec-20 16:33N 57°47' E 010°46'9 9.0
2014-Dec-20 15:31N 57°38' E 010°47'1211.8
2014-Dec-20 14:32N 57°33' E 011°07'1111.6
2014-Dec-20 13:33N 57°28' E 011°26'1211.9
2014-Dec-20 12:33N 57°17' E 011°34'1211.6
2014-Dec-20 11:33N 57°06' E 011°41'1111.4
2014-Dec-20 10:33N 56°55' E 011°48'1111.1
2014-Dec-20 09:33N 56°44' E 011°53'1312.4
2014-Dec-20 08:30N 56°33' E 011°41'11210.2
2014-Dec-19 21:33N 54°46' E 010°48'9 9.1
2014-Dec-19 20:33N 54°38' E 010°56'1010.2
2014-Dec-19 19:33N 54°35' E 011°13'1010.4
2014-Dec-19 18:33N 54°31' E 011°29'1110.8
2014-Dec-19 17:33N 54°26' E 011°46'1111.1
2014-Dec-19 16:33N 54°26' E 012°06'1010.1
2014-Dec-19 15:33N 54°34' E 012°16'7 6.6
2014-Dec-19 14:31N 54°39' E 012°25'47 9.5
2014-Dec-19 09:32N 54°59' E 013°39'1211.8
2014-Dec-19 08:33N 55°03' E 013°58'1111.3
2014-Dec-19 07:33N 55°10' E 014°13'1312.6
2014-Dec-19 06:33N 55°20' E 014°27'1211.9
2014-Dec-19 05:33N 55°28' E 014°42'1211.5
2014-Dec-19 04:33N 55°34' E 014°60'1111.3
2014-Dec-19 03:33N 55°39' E 015°18'1211.1
2014-Dec-19 02:26N 55°41' E 015°39'34011.4
2014-Dec-17 20:32N 59°37' E 023°17'1212.1
2014-Dec-17 19:31N 59°40' E 023°41'1212.5
2014-Dec-17 18:32N 59°44' E 024°04'1212.5
2014-Dec-17 17:33N 59°47' E 024°28'6112.2
2014-Dec-17 12:32N 60°01' E 026°27'1212.0
2014-Dec-17 11:32N 60°00' E 026°51'1211.4
2014-Dec-17 10:30N 60°03' E 027°14'8 0.2
2014-Dec-15 09:30N 60°06' E 027°28'1314.2
2014-Dec-15 08:33N 59°59' E 027°06'1413.7
2014-Dec-15 07:34N 59°59' E 026°39'1514.2
2014-Dec-15 06:30N 59°55' E 026°10'4313.8
2014-Dec-15 03:21N 59°46' E 024°46'1113.7
2014-Dec-15 02:33N 59°43' E 024°25'1613.8
2014-Dec-15 01:24N 59°38' E 023°55'1213.7
2014-Dec-15 00:33N 59°35' E 023°33'1613.3
2014-Dec-14 23:23N 59°30' E 023°03'34213.2
2014-Dec-13 21:28N 55°32' E 015°28'1314.0
2014-Dec-13 20:33N 55°28' E 015°06'1413.8
2014-Dec-13 19:33N 55°25' E 014°43'1514.5
2014-Dec-13 18:33N 55°14' E 014°25'1212.1
2014-Dec-13 17:33N 55°10' E 014°05'1414.3
2014-Dec-13 16:33N 55°12' E 013°40'1414.0
2014-Dec-13 15:33N 55°14' E 013°16'1413.8
2014-Dec-13 14:33N 55°15' E 012°52'1111.1
2014-Dec-13 13:33N 55°23' E 012°39'1211.6
2014-Dec-13 12:33N 55°35' E 012°42'1414.0
2014-Dec-13 11:33N 55°49' E 012°42'1514.5
2014-Dec-13 10:33N 56°03' E 012°39'1212.4
2014-Dec-13 09:34N 56°11' E 012°21'1212.5
2014-Dec-13 08:33N 56°18' E 012°03'1413.8
2014-Dec-13 07:33N 56°32' E 011°58'1414.0
2014-Dec-13 06:32N 56°46' E 011°53'1413.6
2014-Dec-13 05:33N 56°58' E 011°44'1313.6
2014-Dec-13 04:33N 57°11' E 011°36'1313.3
2014-Dec-13 03:33N 57°24' E 011°28'1313.5
2014-Dec-13 02:33N 57°34' E 011°12'1413.9
2014-Dec-13 01:33N 57°43' E 010°53'1413.5
2014-Dec-13 00:33N 57°48' E 010°29'4914.3
2014-Dec-12 21:07N 57°31' E 009°03'2815.0
2014-Dec-12 19:15N 57°18' E 008°17'1115.1
2014-Dec-12 18:33N 57°13' E 007°59'1514.7
2014-Dec-12 17:32N 57°06' E 007°35'  
Track history (hours):
 
Tides and Currents Weather Stations Pressure Air Temp Water Temp Dewpoint Dewpoint Depression Visibility Wind Speed Wind Dir Waves Ship Positions

Miraero Ace

Last reported at 2014-Dec-22 12:33 UTC. Time now 2014-Dec-22 13:29 UTC.
Position N 53°35' E 008°09'.

Length 229 m; draft 14.3 m.

Type: Ship. MMSI: 373216000.

Date/timePositionNaut miles runAvg speedWind from/ knotsBaromVisibWave heightAir tempDewpointWater temp
2014-Dec-22 12:33N 53°35' E 008°09'0 0.0
2014-Dec-22 11:33N 53°35' E 008°09'0 0.0
2014-Dec-22 10:33N 53°35' E 008°09'0 0.0
2014-Dec-22 09:33N 53°35' E 008°09'0 0.0
2014-Dec-22 08:33N 53°35' E 008°09'0 0.0
2014-Dec-22 07:33N 53°35' E 008°09'0 0.0
2014-Dec-22 06:33N 53°35' E 008°09'0 0.0
2014-Dec-22 05:33N 53°35' E 008°09'0 0.0
2014-Dec-22 04:33N 53°35' E 008°09'3 3.2
2014-Dec-22 03:33N 53°38' E 008°08'8 7.9
2014-Dec-22 02:33N 53°45' E 008°03'7 7.3
2014-Dec-22 01:33N 53°50' E 007°53'8 7.7
2014-Dec-22 00:33N 53°54' E 007°42'9 8.6
2014-Dec-21 23:33N 54°01' E 007°34'7 7.5
2014-Dec-21 22:34N 54°08' E 007°29'7 7.3
2014-Dec-21 21:33N 54°14' E 007°23'1 1.3
2014-Dec-21 20:34N 54°15' E 007°21'6 6.0
2014-Dec-21 19:33N 54°21' E 007°17'9 8.8
2014-Dec-21 18:33N 54°29' E 007°12'1211.6
2014-Dec-21 17:33N 54°40' E 007°04'1111.2
2014-Dec-21 16:33N 54°51' E 007°00'1010.5
2014-Dec-21 15:33N 55°01' E 006°59'1110.9
2014-Dec-21 14:33N 55°12' E 006°57'1110.8
2014-Dec-21 13:33N 55°23' E 006°59'1211.6
2014-Dec-21 12:33N 55°34' E 006°60'1211.8
2014-Dec-21 11:33N 55°46' E 007°02'8610.3
2014-Dec-21 03:12N 57°07' E 007°59'8 9.3
2014-Dec-21 02:23N 57°10' E 008°11'18 9.4
2014-Dec-21 00:27N 57°23' E 008°35'65 9.5
2014-Dec-20 17:33N 57°48' E 010°28'10 9.9
2014-Dec-20 16:33N 57°47' E 010°46'9 9.0
2014-Dec-20 15:31N 57°38' E 010°47'1211.8
2014-Dec-20 14:32N 57°33' E 011°07'1111.6
2014-Dec-20 13:33N 57°28' E 011°26'1211.9
2014-Dec-20 12:33N 57°17' E 011°34'1211.6
2014-Dec-20 11:33N 57°06' E 011°41'1111.4
2014-Dec-20 10:33N 56°55' E 011°48'1111.1
2014-Dec-20 09:33N 56°44' E 011°53'1312.4
2014-Dec-20 08:30N 56°33' E 011°41'11210.2
2014-Dec-19 21:33N 54°46' E 010°48'9 9.1
2014-Dec-19 20:33N 54°38' E 010°56'1010.2
2014-Dec-19 19:33N 54°35' E 011°13'1010.4
2014-Dec-19 18:33N 54°31' E 011°29'1110.8
2014-Dec-19 17:33N 54°26' E 011°46'1111.1
2014-Dec-19 16:33N 54°26' E 012°06'1010.1
2014-Dec-19 15:33N 54°34' E 012°16'7 6.6
2014-Dec-19 14:31N 54°39' E 012°25'47 9.5
2014-Dec-19 09:32N 54°59' E 013°39'1211.8
2014-Dec-19 08:33N 55°03' E 013°58'1111.3
2014-Dec-19 07:33N 55°10' E 014°13'1312.6
2014-Dec-19 06:33N 55°20' E 014°27'1211.9
2014-Dec-19 05:33N 55°28' E 014°42'1211.5
2014-Dec-19 04:33N 55°34' E 014°60'1111.3
2014-Dec-19 03:33N 55°39' E 015°18'1211.1
2014-Dec-19 02:26N 55°41' E 015°39'34011.4
2014-Dec-17 20:32N 59°37' E 023°17'1212.1
2014-Dec-17 19:31N 59°40' E 023°41'1212.5
2014-Dec-17 18:32N 59°44' E 024°04'1212.5
2014-Dec-17 17:33N 59°47' E 024°28'6112.2
2014-Dec-17 12:32N 60°01' E 026°27'1212.0
2014-Dec-17 11:32N 60°00' E 026°51'1211.4
2014-Dec-17 10:30N 60°03' E 027°14'8 0.2
2014-Dec-15 09:30N 60°06' E 027°28'1314.2
2014-Dec-15 08:33N 59°59' E 027°06'1413.7
2014-Dec-15 07:34N 59°59' E 026°39'1514.2
2014-Dec-15 06:30N 59°55' E 026°10'4313.8
2014-Dec-15 03:21N 59°46' E 024°46'1113.7
2014-Dec-15 02:33N 59°43' E 024°25'1613.8
2014-Dec-15 01:24N 59°38' E 023°55'1213.7
2014-Dec-15 00:33N 59°35' E 023°33'1613.3
2014-Dec-14 23:23N 59°30' E 023°03'34213.2
2014-Dec-13 21:28N 55°32' E 015°28'1314.0
2014-Dec-13 20:33N 55°28' E 015°06'1413.8
2014-Dec-13 19:33N 55°25' E 014°43'1514.5
2014-Dec-13 18:33N 55°14' E 014°25'1212.1
2014-Dec-13 17:33N 55°10' E 014°05'1414.3
2014-Dec-13 16:33N 55°12' E 013°40'1414.0
2014-Dec-13 15:33N 55°14' E 013°16'1413.8
2014-Dec-13 14:33N 55°15' E 012°52'1111.1
2014-Dec-13 13:33N 55°23' E 012°39'1211.6
2014-Dec-13 12:33N 55°35' E 012°42'1414.0
2014-Dec-13 11:33N 55°49' E 012°42'1514.5
2014-Dec-13 10:33N 56°03' E 012°39'1212.4
2014-Dec-13 09:34N 56°11' E 012°21'1212.5
2014-Dec-13 08:33N 56°18' E 012°03'1413.8
2014-Dec-13 07:33N 56°32' E 011°58'1414.0
2014-Dec-13 06:32N 56°46' E 011°53'1413.6
2014-Dec-13 05:33N 56°58' E 011°44'1313.6
2014-Dec-13 04:33N 57°11' E 011°36'1313.3
2014-Dec-13 03:33N 57°24' E 011°28'1313.5
2014-Dec-13 02:33N 57°34' E 011°12'1413.9
2014-Dec-13 01:33N 57°43' E 010°53'1413.5
2014-Dec-13 00:33N 57°48' E 010°29'4914.3
2014-Dec-12 21:07N 57°31' E 009°03'2815.0
2014-Dec-12 19:15N 57°18' E 008°17'1115.1
2014-Dec-12 18:33N 57°13' E 007°59'1514.7
2014-Dec-12 17:32N 57°06' E 007°35'  

Dump ship's entire track history